createdAt,value
2019-06-01T00:00:35.838Z,8.88
2019-06-01T00:03:07.102Z,9.18
2019-06-01T00:05:36.422Z,9.10
2019-06-01T00:08:05.652Z,8.83
2019-06-01T00:10:34.958Z,9.43
2019-06-01T00:13:04.498Z,8.20
2019-06-01T00:15:33.701Z,8.08
2019-06-01T00:18:02.938Z,8.20
2019-06-01T00:20:32.164Z,7.90
2019-06-01T00:23:01.448Z,8.58
2019-06-01T00:25:30.682Z,8.60
2019-06-01T00:28:00.265Z,7.58
2019-06-01T00:30:29.474Z,7.90
2019-06-01T00:32:58.722Z,7.83
2019-06-01T00:35:28.296Z,7.70
2019-06-01T00:37:57.556Z,7.70
2019-06-01T00:40:26.840Z,7.17
2019-06-01T00:42:56.086Z,7.15
2019-06-01T00:45:25.382Z,8.05
2019-06-01T00:47:54.608Z,7.40
2019-06-01T00:50:24.440Z,8.13
2019-06-01T00:52:53.984Z,7.92
2019-06-01T00:55:23.234Z,7.40
2019-06-01T00:57:53.869Z,7.97
2019-06-01T01:00:23.315Z,7.92
2019-06-01T01:02:52.670Z,7.97
2019-06-01T01:05:22.129Z,7.17
2019-06-01T01:07:53.072Z,8.23
2019-06-01T01:10:22.465Z,7.85
2019-06-01T01:13:13.296Z,7.60
2019-06-01T01:15:42.883Z,7.80
2019-06-01T01:18:12.106Z,7.70
2019-06-01T01:20:41.756Z,8.63
2019-06-01T01:23:11.398Z,8.30
2019-06-01T01:25:40.672Z,8.20
2019-06-01T01:28:09.958Z,8.35
2019-06-01T01:30:39.206Z,7.97
2019-06-01T01:33:08.441Z,7.87
2019-06-01T01:35:37.660Z,8.00
2019-06-01T01:38:06.879Z,9.27
2019-06-01T01:40:36.528Z,9.13
2019-06-01T01:43:05.743Z,8.53
2019-06-01T01:45:34.976Z,7.70
2019-06-01T01:48:04.253Z,7.37
2019-06-01T01:50:33.510Z,8.70
2019-06-01T01:53:03.350Z,7.70
2019-06-01T01:55:32.738Z,8.53
2019-06-01T01:58:01.963Z,8.07
2019-06-01T02:00:35.622Z,7.90
2019-06-01T02:03:05.248Z,9.50
2019-06-01T02:05:34.564Z,8.93
2019-06-01T02:08:04.275Z,9.10
2019-06-01T02:10:33.582Z,8.97
2019-06-01T02:13:03.173Z,8.83
2019-06-01T02:15:32.820Z,8.53
2019-06-01T02:18:02.749Z,8.60
2019-06-01T02:20:32.384Z,8.13
2019-06-01T02:23:03.049Z,8.20
2019-06-01T02:25:32.504Z,8.50
2019-06-01T02:28:01.794Z,9.03
2019-06-01T02:30:31.472Z,8.93
2019-06-01T02:33:02.212Z,9.43
2019-06-01T02:35:31.683Z,8.80
2019-06-01T02:38:02.771Z,9.60
2019-06-01T02:40:31.954Z,8.87
2019-06-01T02:43:04.316Z,9.57
2019-06-01T02:45:34.212Z,10.17
2019-06-01T02:48:03.929Z,9.63
2019-06-01T02:50:33.908Z,10.17
2019-06-01T02:53:03.643Z,9.07
2019-06-01T02:55:33.013Z,10.00
2019-06-01T02:58:02.481Z,9.57
2019-06-01T03:00:51.999Z,8.80
2019-06-01T03:03:21.280Z,9.47
2019-06-01T03:05:50.670Z,9.47
2019-06-01T03:08:20.473Z,10.00
2019-06-01T03:10:50.114Z,9.57
2019-06-01T03:13:20.873Z,9.20
2019-06-01T03:15:51.574Z,10.30
2019-06-01T03:18:21.984Z,9.90
2019-06-01T03:20:51.882Z,10.70
2019-06-01T03:23:22.985Z,8.93
2019-06-01T03:25:53.809Z,8.90
2019-06-01T03:28:24.642Z,8.77
2019-06-01T03:30:54.334Z,9.57
2019-06-01T03:33:23.631Z,9.63
2019-06-01T03:35:53.014Z,10.33
2019-06-01T03:38:22.404Z,9.97
2019-06-01T03:40:51.713Z,10.15
2019-06-01T03:43:21.506Z,10.53
2019-06-01T03:45:50.718Z,10.43
2019-06-01T03:48:20.036Z,10.80
2019-06-01T03:50:49.259Z,9.90
2019-06-01T03:53:18.566Z,10.50
2019-06-01T03:55:47.779Z,8.97
2019-06-01T03:58:17.982Z,10.57
2019-06-01T04:00:47.215Z,9.58
2019-06-01T04:03:16.515Z,9.80
2019-06-01T04:05:45.728Z,10.60
2019-06-01T04:08:15.007Z,10.37
2019-06-01T04:10:44.496Z,10.20
2019-06-01T04:13:13.742Z,10.20
2019-06-01T04:15:44.038Z,10.70
2019-06-01T04:18:14.079Z,10.07
2019-06-01T04:20:43.783Z,10.15
2019-06-01T04:23:13.028Z,10.10
2019-06-01T04:25:42.261Z,10.40
2019-06-01T04:28:12.623Z,10.50
2019-06-01T04:30:42.390Z,10.03
2019-06-01T04:33:13.169Z,9.63
2019-06-01T04:35:42.737Z,9.77
2019-06-01T04:38:13.388Z,9.53
2019-06-01T04:40:42.752Z,9.23
2019-06-01T04:43:12.123Z,8.98
2019-06-01T04:45:41.688Z,9.55
2019-06-01T04:48:10.938Z,9.23
2019-06-01T04:50:40.152Z,8.77
2019-06-01T04:53:09.369Z,9.30
2019-06-01T04:55:38.667Z,8.90
2019-06-01T04:58:08.962Z,9.50
2019-06-01T05:00:38.316Z,9.20
2019-06-01T05:03:09.234Z,8.63
2019-06-01T05:05:38.465Z,9.38
2019-06-01T05:08:07.771Z,9.33
2019-06-01T05:10:36.994Z,8.80
2019-06-01T05:13:07.249Z,8.65
2019-06-01T05:15:37.016Z,9.48
2019-06-01T05:18:07.875Z,9.13
2019-06-01T05:20:37.427Z,9.65
2019-06-01T05:23:07.014Z,8.70
2019-06-01T05:25:36.241Z,8.95
2019-06-01T05:28:05.522Z,9.48
2019-06-01T05:30:34.755Z,9.85
2019-06-01T05:33:04.171Z,10.23
2019-06-01T05:35:33.512Z,9.58
2019-06-01T05:38:02.756Z,9.88
2019-06-01T05:40:32.365Z,9.70
2019-06-01T05:43:01.592Z,8.98
2019-06-01T05:45:30.826Z,9.43
2019-06-01T05:48:00.050Z,9.45
2019-06-01T05:50:29.295Z,8.60
2019-06-01T05:52:58.495Z,8.70
2019-06-01T05:55:27.723Z,8.50
2019-06-01T05:57:58.218Z,8.70
2019-06-01T06:00:38.044Z,7.70
2019-06-01T06:03:07.232Z,8.58
2019-06-01T06:05:36.461Z,8.28
2019-06-01T06:08:06.728Z,9.33
2019-06-01T06:10:35.965Z,10.00
2019-06-01T06:13:05.639Z,8.98
2019-06-01T06:15:35.245Z,9.28
2019-06-01T06:18:04.688Z,10.63
2019-06-01T06:20:33.935Z,9.50
2019-06-01T06:23:03.162Z,9.68
2019-06-01T06:25:34.162Z,10.30
2019-06-01T06:28:04.274Z,10.10
2019-06-01T06:30:33.599Z,10.82
2019-06-01T06:33:02.874Z,11.38
2019-06-01T06:35:32.333Z,10.13
2019-06-01T06:38:01.568Z,9.33
2019-06-01T06:40:30.988Z,9.98
2019-06-01T06:43:00.261Z,10.25
2019-06-01T06:45:29.815Z,10.70
2019-06-01T06:47:59.135Z,11.15
2019-06-01T06:50:28.367Z,11.73
2019-06-01T06:52:57.602Z,12.45
2019-06-01T06:55:26.854Z,11.78
2019-06-01T06:57:56.062Z,11.45
2019-06-01T07:00:25.309Z,11.40
2019-06-01T07:02:54.530Z,11.45
2019-06-01T07:05:23.744Z,11.60
2019-06-01T07:07:53.027Z,11.38
2019-06-01T07:10:22.527Z,11.43
2019-06-01T07:12:52.322Z,10.88
2019-06-01T07:15:23.470Z,11.45
2019-06-01T07:17:52.893Z,11.50
2019-06-01T07:20:23.702Z,11.40
2019-06-01T07:22:53.200Z,11.38
2019-06-01T07:25:22.468Z,11.40
2019-06-01T07:27:51.774Z,12.10
2019-06-01T07:30:22.111Z,12.23
2019-06-01T07:32:52.476Z,12.55
2019-06-01T07:35:22.365Z,12.40
2019-06-01T07:37:52.752Z,10.60
2019-06-01T07:40:22.984Z,11.80
2019-06-01T07:42:53.676Z,11.68
2019-06-01T07:45:25.326Z,10.58
2019-06-01T07:47:54.549Z,9.43
2019-06-01T07:50:23.982Z,9.08
2019-06-01T07:52:53.199Z,8.65
2019-06-01T07:55:23.543Z,10.10
2019-06-01T07:57:53.155Z,9.63
2019-06-01T08:00:23.999Z,8.78
2019-06-01T08:02:53.458Z,9.58
2019-06-01T08:05:30.398Z,7.54
2019-06-01T08:07:59.702Z,8.18
2019-06-01T08:10:29.645Z,8.93
2019-06-01T08:13:00.059Z,9.18
2019-06-01T08:15:29.846Z,8.58
2019-06-01T08:17:59.262Z,6.67
2019-06-01T08:20:28.793Z,7.67
2019-06-01T08:22:58.446Z,7.87
2019-06-01T08:25:28.576Z,6.00
2019-06-01T08:27:58.101Z,5.65
2019-06-01T08:30:28.639Z,6.60
2019-06-01T08:32:58.314Z,4.83
2019-06-01T08:35:29.158Z,4.30
2019-06-01T08:37:58.425Z,3.70
2019-06-01T08:40:29.356Z,3.90
2019-06-01T08:42:58.768Z,4.58
2019-06-01T08:45:28.032Z,3.33
2019-06-01T08:47:57.388Z,3.10
2019-06-01T08:50:27.709Z,3.58
2019-06-01T08:52:57.430Z,3.15
2019-06-01T08:55:27.989Z,3.85
2019-06-01T08:57:57.388Z,3.22
2019-06-01T09:00:26.628Z,3.15
2019-06-01T09:02:56.306Z,2.70
2019-06-01T09:05:26.793Z,3.30
2019-06-01T09:07:56.878Z,3.22
2019-06-01T09:10:27.392Z,3.40
2019-06-01T09:12:56.891Z,3.10
2019-06-01T09:15:27.588Z,3.37
2019-06-01T09:17:56.947Z,2.52
2019-06-01T09:20:27.393Z,2.83
2019-06-01T09:22:57.020Z,2.98
2019-06-01T09:25:27.447Z,2.83
2019-06-01T09:27:56.763Z,2.67
2019-06-01T09:30:26.097Z,2.80
2019-06-01T09:32:55.419Z,2.62
2019-06-01T09:35:46.272Z,2.30
2019-06-01T09:37:55.878Z,2.33
2019-06-01T09:40:27.301Z,2.62
2019-06-01T09:42:56.856Z,2.47
2019-06-01T09:45:26.152Z,1.80
2019-06-01T09:47:55.423Z,2.33
2019-06-01T09:50:24.956Z,2.50
2019-06-01T09:52:54.162Z,1.90
2019-06-01T09:55:23.486Z,1.77
2019-06-01T09:57:52.700Z,2.50
2019-06-01T10:00:22.106Z,2.30
2019-06-01T10:02:55.199Z,2.15
2019-06-01T10:05:24.569Z,2.30
2019-06-01T10:07:53.800Z,2.15
2019-06-01T10:10:23.368Z,2.15
2019-06-01T10:12:52.570Z,2.35
2019-06-01T10:15:21.848Z,2.10
2019-06-01T10:17:51.094Z,1.80
2019-06-01T10:20:20.482Z,2.42
2019-06-01T10:22:49.699Z,1.77
2019-06-01T10:25:19.042Z,2.27
2019-06-01T10:27:48.546Z,1.82
2019-06-01T10:30:19.114Z,2.10
2019-06-01T10:32:49.614Z,1.95
2019-06-01T10:35:18.924Z,1.95
2019-06-01T10:37:48.131Z,2.00
2019-06-01T10:40:17.438Z,1.95
2019-06-01T10:42:47.028Z,1.70
2019-06-01T10:45:16.907Z,2.83
2019-06-01T10:47:46.137Z,1.90
2019-06-01T10:50:17.591Z,1.98
2019-06-01T10:52:46.918Z,1.80
2019-06-01T10:55:16.987Z,1.67
2019-06-01T10:57:46.327Z,1.80
2019-06-01T11:00:15.718Z,2.15
2019-06-01T11:02:44.938Z,1.95
2019-06-01T11:05:15.298Z,1.90
2019-06-01T11:07:44.704Z,2.12
2019-06-01T11:10:14.451Z,1.80
2019-06-01T11:12:52.574Z,2.14
2019-06-01T11:15:21.945Z,2.08
2019-06-01T11:17:51.205Z,1.70
2019-06-01T11:20:20.559Z,1.55
2019-06-01T11:22:50.759Z,2.02
2019-06-01T11:25:19.978Z,1.75
2019-06-01T11:27:50.761Z,1.98
2019-06-01T11:30:21.401Z,1.85
2019-06-01T11:32:50.661Z,1.77
2019-06-01T11:35:20.026Z,2.10
2019-06-01T11:37:49.400Z,2.10
2019-06-01T11:40:18.926Z,3.20
2019-06-01T11:42:48.482Z,1.95
2019-06-01T11:45:17.786Z,2.40
2019-06-01T11:47:47.019Z,2.25
2019-06-01T11:50:16.463Z,2.22
2019-06-01T11:52:45.974Z,2.00
2019-06-01T11:55:16.158Z,1.85
2019-06-01T11:57:45.907Z,1.77
2019-06-01T12:00:17.194Z,2.27
2019-06-01T12:02:46.663Z,2.12
2019-06-01T12:05:15.952Z,2.00
2019-06-01T12:07:46.142Z,2.10
2019-06-01T12:10:15.858Z,1.98
2019-06-01T12:12:46.346Z,2.08
2019-06-01T12:15:15.956Z,2.40
2019-06-01T12:17:45.452Z,2.20
2019-06-01T12:20:15.784Z,1.95
2019-06-01T12:22:45.191Z,1.82
2019-06-01T12:25:14.582Z,2.00
2019-06-01T12:27:44.149Z,2.08
2019-06-01T12:30:13.421Z,2.05
2019-06-01T12:32:43.944Z,1.95
2019-06-01T12:35:14.613Z,2.20
2019-06-01T12:38:01.063Z,1.98
2019-06-01T12:40:18.796Z,2.62
2019-06-01T12:42:48.039Z,2.27
2019-06-01T12:45:22.439Z,1.82
2019-06-01T12:47:54.146Z,1.80
2019-06-01T12:50:20.546Z,1.80
2019-06-01T12:52:50.830Z,1.85
2019-06-01T12:55:20.022Z,1.70
2019-06-01T12:57:49.417Z,1.87
2019-06-01T13:00:18.790Z,2.15
2019-06-01T13:02:59.469Z,2.00
2019-06-01T13:05:19.001Z,1.98
2019-06-01T13:07:58.613Z,1.65
2019-06-01T13:10:19.144Z,1.72
2019-06-01T13:12:49.475Z,1.90
2019-06-01T13:15:18.852Z,1.90
2019-06-01T13:17:49.311Z,2.05
2019-06-01T13:20:18.933Z,1.80
2019-06-01T13:22:49.881Z,1.70
2019-06-01T13:25:19.455Z,1.70
2019-06-01T13:27:50.498Z,1.75
2019-06-01T13:30:19.968Z,1.80
2019-06-01T13:32:50.604Z,1.67
2019-06-01T13:35:20.361Z,1.77
2019-06-01T13:37:50.789Z,2.00
2019-06-01T13:40:26.270Z,2.28
2019-06-01T13:42:55.562Z,1.65
2019-06-01T13:45:24.886Z,1.75
2019-06-01T13:47:54.213Z,2.00
2019-06-01T13:50:24.439Z,1.62
2019-06-01T13:52:54.220Z,1.80
2019-06-01T13:55:23.742Z,1.70
2019-06-01T13:57:54.558Z,1.60
2019-06-01T14:00:30.326Z,2.05
2019-06-01T14:02:57.528Z,2.00
2019-06-01T14:05:25.948Z,1.90
2019-06-01T14:07:55.730Z,1.75
2019-06-01T14:10:25.319Z,1.32
2019-06-01T14:12:55.592Z,1.72
2019-06-01T14:15:24.906Z,2.00
2019-06-01T14:17:54.623Z,1.90
2019-06-01T14:20:25.672Z,1.82
2019-06-01T14:22:56.023Z,1.75
2019-06-01T14:25:25.775Z,1.60
2019-06-01T14:27:56.926Z,2.00
2019-06-01T14:30:26.303Z,1.50
2019-06-01T14:32:56.925Z,2.02
2019-06-01T14:35:27.354Z,1.72
2019-06-01T14:37:57.567Z,1.77
2019-06-01T14:40:55.918Z,2.07
2019-06-01T14:43:26.231Z,1.62
2019-06-01T14:45:55.975Z,1.80
2019-06-01T14:48:25.654Z,1.75
2019-06-01T14:50:55.824Z,2.02
2019-06-01T14:53:25.588Z,1.87
2019-06-01T14:55:55.820Z,1.85
2019-06-01T14:58:25.171Z,1.70
2019-06-01T15:00:54.630Z,1.75
2019-06-01T15:03:24.410Z,2.00
2019-06-01T15:05:54.373Z,1.85
2019-06-01T15:08:23.760Z,1.60
2019-06-01T15:10:53.443Z,1.62
2019-06-01T15:13:24.038Z,1.82
2019-06-01T15:15:53.442Z,1.67
2019-06-01T15:18:22.976Z,1.50
2019-06-01T15:20:53.748Z,1.42
2019-06-01T15:23:23.443Z,1.57
2019-06-01T15:25:52.670Z,1.70
2019-06-01T15:28:23.210Z,1.70
2019-06-01T15:30:53.037Z,1.57
2019-06-01T15:33:22.266Z,1.70
2019-06-01T15:35:52.203Z,2.08
2019-06-01T15:38:22.595Z,1.87
2019-06-01T15:40:51.907Z,1.60
2019-06-01T15:43:21.170Z,1.80
2019-06-01T15:45:51.207Z,1.52
2019-06-01T15:48:20.919Z,1.70
2019-06-01T15:50:51.265Z,1.60
2019-06-01T15:53:21.025Z,1.85
2019-06-01T15:55:54.246Z,2.02
2019-06-01T15:58:23.563Z,1.90
2019-06-01T16:00:52.845Z,1.37
2019-06-01T16:03:23.162Z,1.87
2019-06-01T16:05:53.045Z,1.55
2019-06-01T16:08:22.364Z,1.90
2019-06-01T16:10:51.606Z,1.60
2019-06-01T16:13:20.873Z,2.00
2019-06-01T16:15:50.169Z,1.95
2019-06-01T16:18:19.402Z,1.50
2019-06-01T16:20:48.711Z,1.70
2019-06-01T16:23:18.007Z,2.00
2019-06-01T16:25:59.692Z,1.60
2019-06-01T16:28:18.804Z,1.72
2019-06-01T16:30:48.084Z,2.12
2019-06-01T16:33:17.312Z,2.40
2019-06-01T16:35:46.736Z,1.90
2019-06-01T16:38:16.016Z,2.00
2019-06-01T16:40:45.291Z,1.95
2019-06-01T16:43:14.877Z,2.12
2019-06-01T16:45:44.204Z,1.60
2019-06-01T16:48:13.505Z,1.60
2019-06-01T16:50:44.351Z,1.72
2019-06-01T16:53:13.925Z,1.87
2019-06-01T16:55:43.287Z,1.98
2019-06-01T16:58:12.587Z,2.20
2019-06-01T17:00:41.945Z,1.90
2019-06-01T17:03:11.535Z,2.10
2019-06-01T17:05:41.110Z,1.70
2019-06-01T17:08:10.451Z,1.70
2019-06-01T17:10:41.116Z,1.87
2019-06-01T17:13:10.572Z,2.00
2019-06-01T17:15:39.857Z,2.17
2019-06-01T17:18:10.431Z,2.05
2019-06-01T17:20:43.937Z,2.08
2019-06-01T17:23:26.322Z,2.33
2019-06-01T17:25:45.364Z,2.20
2019-06-01T17:28:14.727Z,2.00
2019-06-01T17:30:43.999Z,2.10
2019-06-01T17:33:13.295Z,2.40
2019-06-01T17:35:42.711Z,3.62
2019-06-01T17:38:12.455Z,2.30
2019-06-01T17:40:43.629Z,2.62
2019-06-01T17:43:13.462Z,2.00
2019-06-01T17:45:42.951Z,1.92
2019-06-01T17:48:25.141Z,2.15
2019-06-01T17:50:45.925Z,3.60
2019-06-01T17:53:15.474Z,2.40
2019-06-01T17:55:44.976Z,2.40
2019-06-01T17:58:14.754Z,1.98
2019-06-01T18:00:44.293Z,2.12
2019-06-01T18:03:14.674Z,2.00
2019-06-01T18:05:44.061Z,2.58
2019-06-01T18:08:14.006Z,2.10
2019-06-01T18:10:54.151Z,2.35
2019-06-01T18:13:17.258Z,2.30
2019-06-01T18:15:49.892Z,2.20
2019-06-01T18:18:17.492Z,2.10
2019-06-01T18:20:47.067Z,2.27
2019-06-01T18:23:16.376Z,2.20
2019-06-01T18:25:45.667Z,2.17
2019-06-01T18:28:19.200Z,2.30
2019-06-01T18:30:46.004Z,2.50
2019-06-01T18:33:15.305Z,2.70
2019-06-01T18:35:44.620Z,2.47
2019-06-01T18:38:15.044Z,2.25
2019-06-01T18:40:44.485Z,2.80
2019-06-01T18:43:15.294Z,2.55
2019-06-01T18:45:44.679Z,2.40
2019-06-01T18:48:23.564Z,2.70
2019-06-01T18:50:53.893Z,2.72
2019-06-01T18:53:23.100Z,3.00
2019-06-01T18:55:52.410Z,2.87
2019-06-01T18:58:21.969Z,3.00
2019-06-01T19:00:51.292Z,3.17
2019-06-01T19:03:21.252Z,2.87
2019-06-01T19:05:50.477Z,2.98
2019-06-01T19:08:19.979Z,3.27
2019-06-01T19:10:49.803Z,3.30
2019-06-01T19:13:19.696Z,3.05
2019-06-01T19:15:48.894Z,3.62
2019-06-01T19:18:18.698Z,3.75
2019-06-01T19:20:48.134Z,3.60
2019-06-01T19:23:21.442Z,3.83
2019-06-01T19:25:49.427Z,3.42
2019-06-01T19:28:20.136Z,3.52
2019-06-01T19:30:49.584Z,4.42
2019-06-01T19:33:19.613Z,4.58
2019-06-01T19:35:48.989Z,3.92
2019-06-01T19:38:19.276Z,3.90
2019-06-01T19:40:48.662Z,4.60
2019-06-01T19:43:18.155Z,5.50
2019-06-01T19:45:47.375Z,6.83
2019-06-01T19:48:18.573Z,6.65
2019-06-01T19:50:48.295Z,7.75
2019-06-01T19:53:21.343Z,7.17
2019-06-01T19:55:50.591Z,7.72
2019-06-01T19:58:19.937Z,7.17
2019-06-01T20:00:51.122Z,7.28
2019-06-01T20:03:22.191Z,9.08
2019-06-01T20:05:51.710Z,9.05
2019-06-01T20:08:22.492Z,9.48
2019-06-01T20:10:52.246Z,8.58
2019-06-01T20:13:21.623Z,8.38
2019-06-01T20:15:50.994Z,8.30
2019-06-01T20:18:20.378Z,8.50
2019-06-01T20:20:49.676Z,11.85
2019-06-01T20:23:19.542Z,13.62
2019-06-01T20:25:49.164Z,13.10
2019-06-01T20:28:19.994Z,11.95
2019-06-01T20:30:50.748Z,12.00
2019-06-01T20:33:22.359Z,9.63
2019-06-01T20:35:51.840Z,10.03
2019-06-01T20:38:23.043Z,10.60
2019-06-01T20:40:52.260Z,10.05
2019-06-01T20:43:22.839Z,10.05
2019-06-01T20:45:52.241Z,9.55
2019-06-01T20:48:22.851Z,9.43
2019-06-01T20:50:52.366Z,9.38
2019-06-01T20:53:23.799Z,9.25
2019-06-01T20:55:53.133Z,8.60
2019-06-01T20:58:23.628Z,8.70
2019-06-01T21:00:53.580Z,7.90
2019-06-01T21:03:24.209Z,7.97
2019-06-01T21:05:53.664Z,9.23
2019-06-01T21:08:24.046Z,8.60
2019-06-01T21:10:53.594Z,8.28
2019-06-01T21:13:24.124Z,8.33
2019-06-01T21:15:53.544Z,7.78
2019-06-01T21:18:22.820Z,8.03
2019-06-01T21:20:52.369Z,8.53
2019-06-01T21:23:25.253Z,8.08
2019-06-01T21:25:54.898Z,8.28
2019-06-01T21:28:25.492Z,9.38
2019-06-01T21:30:55.980Z,10.43
2019-06-01T21:33:28.533Z,11.30
2019-06-01T21:35:56.654Z,11.40
2019-06-01T21:38:26.337Z,11.22
2019-06-01T21:40:55.583Z,11.28
2019-06-01T21:43:34.190Z,10.98
2019-06-01T21:45:56.006Z,11.05
2019-06-01T21:48:25.908Z,11.30
2019-06-01T21:50:55.219Z,11.65
2019-06-01T21:53:24.578Z,12.05
2019-06-01T21:55:54.236Z,11.53
2019-06-01T21:58:24.568Z,11.08
2019-06-01T22:00:54.117Z,11.03
2019-06-01T22:03:25.656Z,10.58
2019-06-01T22:05:55.018Z,10.53
2019-06-01T22:08:25.361Z,9.58
2019-06-01T22:10:55.079Z,9.68
2019-06-01T22:13:25.999Z,10.72
2019-06-01T22:15:55.422Z,11.22
2019-06-01T22:18:25.815Z,10.98
2019-06-01T22:20:55.228Z,10.35
2019-06-01T22:23:24.562Z,10.13
2019-06-01T22:25:53.790Z,10.38
2019-06-01T22:28:24.473Z,11.03
2019-06-01T22:30:54.167Z,11.53
2019-06-01T22:33:24.498Z,11.85
2019-06-01T22:35:53.881Z,11.73
2019-06-01T22:38:23.736Z,10.70
2019-06-01T22:40:53.211Z,10.50
2019-06-01T22:43:39.269Z,10.50
2019-06-01T22:45:53.752Z,9.08
2019-06-01T22:48:22.997Z,9.05
2019-06-01T22:50:52.228Z,9.03
2019-06-01T22:53:22.031Z,9.20
2019-06-01T22:55:51.545Z,9.30
2019-06-01T22:58:21.259Z,9.48
2019-06-01T23:00:50.703Z,9.75
2019-06-01T23:03:19.927Z,9.90
2019-06-01T23:05:49.470Z,10.08
2019-06-01T23:08:18.720Z,11.28
2019-06-01T23:10:49.180Z,11.45
2019-06-01T23:13:18.420Z,11.35
2019-06-01T23:15:47.720Z,12.93
2019-06-01T23:18:17.032Z,12.55
2019-06-01T23:20:46.289Z,13.08
2019-06-01T23:23:15.606Z,13.22
2019-06-01T23:25:45.554Z,14.95
2019-06-01T23:28:14.811Z,15.35
2019-06-01T23:30:44.152Z,14.85
2019-06-01T23:33:13.464Z,15.50
2019-06-01T23:35:42.701Z,15.23
2019-06-01T23:38:11.919Z,15.23
2019-06-01T23:40:41.263Z,15.10
2019-06-01T23:43:11.116Z,16.17
2019-06-01T23:45:40.438Z,16.97
2019-06-01T23:48:09.662Z,18.82
2019-06-01T23:50:39.050Z,20.00
2019-06-01T23:53:13.712Z,23.10
2019-06-01T23:55:39.648Z,23.45
2019-06-01T23:58:10.034Z,25.35
